createdAt,value
2016-02-13T00:00:57.520Z,0
2016-02-13T00:01:57.506Z,0
2016-02-13T00:02:57.509Z,0
2016-02-13T00:03:58.404Z,0
2016-02-13T00:04:58.438Z,0
2016-02-13T00:05:57.768Z,0
2016-02-13T00:06:57.490Z,0
2016-02-13T00:07:57.461Z,0
2016-02-13T00:08:57.479Z,0
2016-02-13T00:09:57.436Z,0
2016-02-13T00:10:57.425Z,0
2016-02-13T00:11:59.396Z,0
2016-02-13T00:12:57.664Z,0
2016-02-13T00:13:57.416Z,0
2016-02-13T00:14:57.419Z,0
2016-02-13T00:15:57.453Z,0
2016-02-13T00:16:57.394Z,0
2016-02-13T00:17:59.755Z,0
2016-02-13T00:18:58.776Z,0
2016-02-13T00:19:57.778Z,0
2016-02-13T00:21:01.437Z,0
2016-02-13T00:22:01.599Z,0
2016-02-13T00:23:05.039Z,0
2016-02-13T00:23:59.292Z,0
2016-02-13T00:24:58.139Z,0
2016-02-13T00:25:58.203Z,0
2016-02-13T00:26:57.301Z,0
2016-02-13T00:28:00.211Z,0
2016-02-13T00:28:57.322Z,0
2016-02-13T00:29:57.310Z,0
2016-02-13T00:30:57.140Z,0
2016-02-13T00:31:57.268Z,0
2016-02-13T00:32:57.255Z,0
2016-02-13T00:33:57.242Z,0
2016-02-13T00:34:57.245Z,0
2016-02-13T00:35:57.264Z,0
2016-02-13T00:36:57.235Z,0
2016-02-13T00:37:57.238Z,0
2016-02-13T00:38:57.194Z,0
2016-02-13T00:39:57.197Z,0
2016-02-13T00:40:57.184Z,0
2016-02-13T00:41:57.171Z,0
2016-02-13T00:42:57.205Z,0
2016-02-13T00:43:57.161Z,0
2016-02-13T00:44:57.180Z,0
2016-02-13T00:45:57.152Z,0
2016-02-13T00:46:57.138Z,0
2016-02-13T00:47:57.141Z,0
2016-02-13T00:48:57.113Z,0
2016-02-13T00:49:57.130Z,0
2016-02-13T00:50:57.133Z,0
2016-02-13T00:51:57.121Z,0
2016-02-13T00:52:57.108Z,0
2016-02-13T00:53:57.099Z,0
2016-02-13T00:54:57.102Z,0
2016-02-13T00:55:57.109Z,0
2016-02-13T00:56:57.065Z,0
2016-02-13T00:57:57.053Z,0
2016-02-13T00:58:57.056Z,0
2016-02-13T00:59:57.042Z,0
2016-02-13T01:00:57.014Z,0
2016-02-13T01:01:57.034Z,0
2016-02-13T01:02:57.022Z,0
2016-02-13T01:03:57.009Z,0
2016-02-13T01:04:56.997Z,0
2016-02-13T01:05:56.967Z,0
2016-02-13T01:06:56.987Z,0
2016-02-13T01:07:56.958Z,0
2016-02-13T01:08:56.961Z,0
2016-02-13T01:09:56.947Z,0
2016-02-13T01:10:56.794Z,0
2016-02-13T01:11:56.937Z,0
2016-02-13T01:12:56.940Z,0
2016-02-13T01:13:56.943Z,0
2016-02-13T01:14:56.914Z,0
2016-02-13T01:15:56.916Z,0
2016-02-13T01:16:56.919Z,0
2016-02-13T01:17:56.882Z,0
2016-02-13T01:18:56.962Z,0
2016-02-13T01:19:56.857Z,0
2016-02-13T01:20:59.312Z,0
2016-02-13T01:21:56.846Z,0
2016-02-13T01:22:56.866Z,0
2016-02-13T01:23:56.838Z,0
2016-02-13T01:24:56.824Z,0
2016-02-13T01:25:56.843Z,0
2016-02-13T01:26:56.814Z,0
2016-02-13T01:27:56.816Z,0
2016-02-13T01:28:56.819Z,0
2016-02-13T01:29:56.791Z,0
2016-02-13T01:30:56.811Z,0
2016-02-13T01:31:56.828Z,0
2016-02-13T01:32:56.769Z,0
2016-02-13T01:33:56.772Z,0
2016-02-13T01:34:56.744Z,0
2016-02-13T01:35:56.746Z,0
2016-02-13T01:36:56.717Z,0
2016-02-13T01:37:56.719Z,0
2016-02-13T01:38:56.722Z,0
2016-02-13T01:39:56.742Z,0
2016-02-13T01:40:56.698Z,0
2016-02-13T01:41:56.700Z,0
2016-02-13T01:42:56.687Z,0
2016-02-13T01:43:56.675Z,0
2016-02-13T01:44:56.662Z,0
2016-02-13T01:45:56.665Z,0
2016-02-13T01:46:56.652Z,0
2016-02-13T01:47:56.670Z,0
2016-02-13T01:48:56.626Z,0
2016-02-13T01:49:56.645Z,0
2016-02-13T01:50:56.600Z,0
2016-02-13T01:51:56.603Z,0
2016-02-13T01:52:56.622Z,0
2016-02-13T01:53:56.580Z,0
2016-02-13T01:54:56.583Z,0
2016-02-13T01:55:56.601Z,0
2016-02-13T01:56:56.558Z,0
2016-02-13T01:57:56.560Z,0
2016-02-13T01:58:56.595Z,0
2016-02-13T01:59:56.535Z,0
2016-02-13T02:00:56.553Z,0
2016-02-13T02:01:56.509Z,0
2016-02-13T02:02:56.512Z,0
2016-02-13T02:03:56.531Z,0
2016-02-13T02:04:56.534Z,0
2016-02-13T02:05:56.522Z,0
2016-02-13T02:06:56.478Z,0
2016-02-13T02:07:56.512Z,0
2016-02-13T02:08:56.467Z,0
2016-02-13T02:09:56.455Z,0
2016-02-13T02:10:56.457Z,0
2016-02-13T02:11:56.460Z,0
2016-02-13T02:12:56.446Z,0
2016-02-13T02:13:56.450Z,0
2016-02-13T02:14:56.421Z,0
2016-02-13T02:15:56.408Z,0
2016-02-13T02:16:56.411Z,0
2016-02-13T02:17:56.398Z,0
2016-02-13T02:18:56.401Z,0
2016-02-13T02:19:56.388Z,0
2016-02-13T02:20:56.390Z,0
2016-02-13T02:21:56.362Z,0
2016-02-13T02:22:56.381Z,0
2016-02-13T02:23:56.339Z,0
2016-02-13T02:24:56.341Z,0
2016-02-13T02:25:56.329Z,0
2016-02-13T02:26:56.317Z,0
2016-02-13T02:27:56.335Z,0
2016-02-13T02:28:56.338Z,0
2016-02-13T02:29:56.294Z,0
2016-02-13T02:30:56.280Z,0
2016-02-13T02:31:56.283Z,0
2016-02-13T02:32:56.302Z,0
2016-02-13T02:33:56.274Z,0
2016-02-13T02:34:56.244Z,0
2016-02-13T02:35:56.232Z,0
2016-02-13T02:36:56.235Z,0
2016-02-13T02:37:56.238Z,0
2016-02-13T02:38:56.209Z,0
2016-02-13T02:39:56.227Z,0
2016-02-13T02:40:56.198Z,0
2016-02-13T02:41:56.278Z,0
2016-02-13T02:42:56.173Z,0
2016-02-13T02:43:56.177Z,0
2016-02-13T02:44:56.164Z,0
2016-02-13T02:45:56.167Z,0
2016-02-13T02:46:56.138Z,0
2016-02-13T02:47:56.156Z,0
2016-02-13T02:48:56.128Z,0
2016-02-13T02:49:56.130Z,0
2016-02-13T02:50:56.118Z,0
2016-02-13T02:51:56.121Z,0
2016-02-13T02:52:56.092Z,0
2016-02-13T02:53:56.111Z,0
2016-02-13T02:54:55.928Z,0
2016-02-13T02:55:56.133Z,0
2016-02-13T02:56:56.090Z,0
2016-02-13T02:57:56.061Z,0
2016-02-13T02:58:56.049Z,0
2016-02-13T02:59:56.082Z,0
2016-02-13T03:00:56.023Z,0
2016-02-13T03:01:56.025Z,0
2016-02-13T03:02:56.029Z,0
2016-02-13T03:03:56.017Z,0
2016-02-13T03:04:56.019Z,0
2016-02-13T03:05:55.990Z,0
2016-02-13T03:06:56.008Z,0
2016-02-13T03:07:55.980Z,0
2016-02-13T03:08:55.967Z,0
2016-02-13T03:09:55.971Z,0
2016-02-13T03:10:55.958Z,0
2016-02-13T03:11:55.945Z,0
2016-02-13T03:12:55.931Z,0
2016-02-13T03:13:55.935Z,0
2016-02-13T03:14:55.909Z,0
2016-02-13T03:15:55.911Z,0
2016-02-13T03:16:55.898Z,0
2016-02-13T03:17:55.919Z,0
2016-02-13T03:18:55.874Z,0
2016-02-13T03:19:55.878Z,0
2016-02-13T03:20:55.871Z,0
2016-02-13T03:21:55.874Z,0
2016-02-13T03:22:55.861Z,0
2016-02-13T03:23:55.832Z,0
2016-02-13T03:24:55.835Z,0
2016-02-13T03:25:55.821Z,0
2016-02-13T03:26:55.828Z,0
2016-02-13T03:27:55.658Z,0
2016-02-13T03:28:55.817Z,0
2016-02-13T03:29:55.788Z,0
2016-02-13T03:30:55.792Z,0
2016-02-13T03:31:55.778Z,0
2016-02-13T03:32:55.750Z,0
2016-02-13T03:33:55.783Z,0
2016-02-13T03:34:55.755Z,0
2016-02-13T03:35:55.758Z,0
2016-02-13T03:36:55.714Z,0
2016-02-13T03:37:55.716Z,0
2016-02-13T03:38:55.719Z,0
2016-02-13T03:39:55.691Z,0
2016-02-13T03:40:55.694Z,0
2016-02-13T03:41:55.661Z,0
2016-02-13T03:42:55.683Z,0
2016-02-13T03:43:55.627Z,0
2016-02-13T03:44:55.632Z,0
2016-02-13T03:45:55.592Z,0
2016-02-13T03:46:55.572Z,0
2016-02-13T03:47:55.555Z,0
2016-02-13T03:48:55.553Z,0
2016-02-13T03:49:55.536Z,0
2016-02-13T03:50:55.535Z,0
2016-02-13T03:51:55.518Z,0
2016-02-13T03:52:55.536Z,0
2016-02-13T03:53:55.505Z,0
2016-02-13T03:54:55.522Z,0
2016-02-13T03:55:55.492Z,0
2016-02-13T03:56:55.477Z,0
2016-02-13T03:57:55.464Z,0
2016-02-13T03:58:55.483Z,0
2016-02-13T03:59:55.437Z,0
2016-02-13T04:00:55.424Z,0
2016-02-13T04:01:55.426Z,0
2016-02-13T04:02:55.397Z,0
2016-02-13T04:03:55.432Z,0
2016-02-13T04:04:55.389Z,0
2016-02-13T04:05:55.406Z,0
2016-02-13T04:06:55.677Z,0
2016-02-13T04:07:58.093Z,0
2016-02-13T04:08:55.242Z,0
2016-02-13T04:10:00.938Z,0
2016-02-13T04:10:56.331Z,0
2016-02-13T04:11:55.333Z,0
2016-02-13T04:12:55.336Z,0
2016-02-13T04:13:55.213Z,0
2016-02-13T04:14:55.295Z,0
2016-02-13T04:15:55.142Z,0
2016-02-13T04:16:55.285Z,0
2016-02-13T04:17:55.271Z,0
2016-02-13T04:18:55.306Z,0
2016-02-13T04:19:55.142Z,0
2016-02-13T04:20:55.254Z,0
2016-02-13T04:21:55.256Z,0
2016-02-13T04:22:55.243Z,0
2016-02-13T04:23:55.074Z,0
2016-02-13T04:24:55.234Z,0
2016-02-13T04:25:55.220Z,0
2016-02-13T04:26:55.207Z,0
2016-02-13T04:27:55.225Z,0
2016-02-13T04:28:55.197Z,0
2016-02-13T04:29:55.166Z,0
2016-02-13T04:30:55.184Z,0
2016-02-13T04:31:55.157Z,0
2016-02-13T04:32:55.191Z,0
2016-02-13T04:33:54.974Z,0
2016-02-13T04:34:55.149Z,0
2016-02-13T04:35:55.121Z,0
2016-02-13T04:36:55.139Z,0
2016-02-13T04:37:55.110Z,0
2016-02-13T04:38:55.129Z,0
2016-02-13T04:39:55.102Z,0
2016-02-13T04:40:55.104Z,0
2016-02-13T04:41:55.076Z,0
2016-02-13T04:42:55.064Z,0
2016-02-13T04:43:55.067Z,0
2016-02-13T04:44:55.085Z,0
2016-02-13T04:45:55.041Z,0
2016-02-13T04:46:55.058Z,0
2016-02-13T04:47:55.033Z,0
2016-02-13T04:48:55.051Z,0
2016-02-13T04:49:55.007Z,0
2016-02-13T04:50:54.995Z,0
2016-02-13T04:51:54.998Z,0
2016-02-13T04:52:54.984Z,0
2016-02-13T04:53:54.988Z,0
2016-02-13T04:54:54.959Z,0
2016-02-13T04:55:55.009Z,0
2016-02-13T04:56:54.964Z,0
2016-02-13T04:57:54.952Z,0
2016-02-13T04:58:54.924Z,0
2016-02-13T04:59:54.929Z,0
2016-02-13T05:00:54.916Z,0
2016-02-13T05:02:09.028Z,0
2016-02-13T05:02:54.889Z,0
2016-02-13T05:03:54.893Z,0
2016-02-13T05:04:54.895Z,0
2016-02-13T05:05:54.883Z,0
2016-02-13T05:06:54.869Z,0
2016-02-13T05:07:54.872Z,0
2016-02-13T05:08:54.691Z,0
2016-02-13T05:09:54.833Z,0
2016-02-13T05:10:54.836Z,0
2016-02-13T05:11:54.808Z,0
2016-02-13T05:12:54.810Z,0
2016-02-13T05:13:55.016Z,0
2016-02-13T05:14:54.800Z,0
2016-02-13T05:15:54.802Z,0
2016-02-13T05:16:55.196Z,0
2016-02-13T05:17:54.779Z,0
2016-02-13T05:18:54.782Z,0
2016-02-13T05:19:54.753Z,0
2016-02-13T05:20:54.757Z,0
2016-02-13T05:21:54.727Z,0
2016-02-13T05:22:54.746Z,0
2016-02-13T05:23:54.718Z,0
2016-02-13T05:24:54.704Z,0
2016-02-13T05:25:54.710Z,0
2016-02-13T05:26:54.697Z,0
2016-02-13T05:27:54.543Z,0
2016-02-13T05:28:54.702Z,0
2016-02-13T05:29:54.676Z,0
2016-02-13T05:30:54.664Z,0
2016-02-13T05:31:54.666Z,0
2016-02-13T05:32:54.654Z,0
2016-02-13T05:33:54.640Z,0
2016-02-13T05:34:54.615Z,0
2016-02-13T05:35:54.648Z,0
2016-02-13T05:36:54.604Z,0
2016-02-13T05:37:54.623Z,0
2016-02-13T05:38:54.595Z,0
2016-02-13T05:39:54.628Z,0
2016-02-13T05:40:54.584Z,0
2016-02-13T05:41:54.571Z,0
2016-02-13T05:42:54.590Z,0
2016-02-13T05:43:54.561Z,0
2016-02-13T05:44:54.564Z,0
2016-02-13T05:45:54.550Z,0
2016-02-13T05:46:54.538Z,0
2016-02-13T05:47:54.525Z,0
2016-02-13T05:48:54.528Z,0
2016-02-13T05:49:54.499Z,0
2016-02-13T05:50:54.517Z,0
2016-02-13T05:51:54.474Z,0
2016-02-13T05:52:54.508Z,0
2016-02-13T05:53:54.463Z,0
2016-02-13T05:54:54.468Z,0
2016-02-13T05:55:54.471Z,0
2016-02-13T05:56:54.442Z,0
2016-02-13T05:57:54.444Z,0
2016-02-13T05:58:54.415Z,0
2016-02-13T05:59:54.418Z,0
2016-02-13T06:00:54.470Z,0
2016-02-13T06:01:54.425Z,0
2016-02-13T06:02:54.413Z,0
2016-02-13T06:03:54.383Z,0
2016-02-13T06:04:54.372Z,0
2016-02-13T06:05:54.374Z,0
2016-02-13T06:06:54.361Z,0
2016-02-13T06:07:54.364Z,0
2016-02-13T06:08:54.335Z,0
2016-02-13T06:09:54.387Z,0
2016-02-13T06:10:54.326Z,0
2016-02-13T06:11:54.329Z,0
2016-02-13T06:12:54.319Z,0
2016-02-13T06:13:54.321Z,0
2016-02-13T06:14:54.324Z,0
2016-02-13T06:15:54.280Z,5
2016-02-13T06:16:54.330Z,5
2016-02-13T06:17:54.285Z,5
2016-02-13T06:18:54.256Z,5
2016-02-13T06:19:54.259Z,5
2016-02-13T06:20:54.261Z,5
2016-02-13T06:21:54.249Z,5
2016-02-13T06:22:54.236Z,5
2016-02-13T06:23:54.254Z,5
2016-02-13T06:24:54.226Z,10
2016-02-13T06:25:54.260Z,10
2016-02-13T06:26:54.200Z,10
2016-02-13T06:27:54.188Z,10
2016-02-13T06:28:54.174Z,10
2016-02-13T06:29:54.203Z,15
2016-02-13T06:30:54.167Z,15
2016-02-13T06:31:54.202Z,15
2016-02-13T06:32:54.141Z,15
2016-02-13T06:33:54.130Z,20
2016-02-13T06:34:54.132Z,20
2016-02-13T06:35:54.150Z,20
2016-02-13T06:36:54.137Z,25
2016-02-13T06:37:54.108Z,25
2016-02-13T06:38:54.113Z,25
2016-02-13T06:39:54.085Z,25
2016-02-13T06:40:54.181Z,30
2016-02-13T06:41:54.184Z,30
2016-02-13T06:42:54.108Z,30
2016-02-13T06:43:54.737Z,30
2016-02-13T06:44:54.114Z,35
2016-02-13T06:45:54.117Z,35
2016-02-13T06:46:54.087Z,35
2016-02-13T06:47:54.061Z,40
2016-02-13T06:48:54.017Z,40
2016-02-13T06:49:54.020Z,45
2016-02-13T06:50:54.038Z,45
2016-02-13T06:51:54.010Z,50
2016-02-13T06:52:54.012Z,50
2016-02-13T06:53:54.015Z,50
2016-02-13T06:54:53.971Z,55
2016-02-13T06:55:54.053Z,55
2016-02-13T06:56:53.945Z,60
2016-02-13T06:57:53.980Z,60
2016-02-13T06:58:53.936Z,60
2016-02-13T06:59:53.953Z,60
2016-02-13T07:00:53.925Z,65
2016-02-13T07:01:53.930Z,65
2016-02-13T07:02:53.899Z,65
2016-02-13T07:03:53.885Z,75
2016-02-13T07:04:53.904Z,80
2016-02-13T07:05:53.890Z,85
2016-02-13T07:06:53.894Z,85
2016-02-13T07:07:53.882Z,95
2016-02-13T07:08:53.868Z,100
2016-02-13T07:09:53.871Z,100
2016-02-13T07:10:53.842Z,110
2016-02-13T07:11:53.860Z,110
2016-02-13T07:12:53.832Z,120
2016-02-13T07:13:53.836Z,120
2016-02-13T07:14:53.839Z,135
2016-02-13T07:15:53.795Z,135
2016-02-13T07:16:53.829Z,145
2016-02-13T07:17:53.801Z,150
2016-02-13T07:18:53.788Z,155
2016-02-13T07:19:53.775Z,160
2016-02-13T07:20:53.778Z,160
2016-02-13T07:21:53.765Z,165
2016-02-13T07:22:53.767Z,165
2016-02-13T07:23:53.755Z,165
2016-02-13T07:24:53.742Z,170
2016-02-13T07:25:53.761Z,170
2016-02-13T07:26:53.716Z,170
2016-02-13T07:27:53.719Z,175
2016-02-13T07:28:53.721Z,175
2016-02-13T07:29:53.709Z,175
2016-02-13T07:30:53.697Z,180
2016-02-13T07:31:53.700Z,180
2016-02-13T07:32:53.706Z,180
2016-02-13T07:33:53.694Z,180
2016-02-13T07:34:53.665Z,180
2016-02-13T07:35:53.700Z,180
2016-02-13T07:36:53.671Z,175
2016-02-13T07:37:53.658Z,175
2016-02-13T07:38:53.660Z,175
2016-02-13T07:39:53.632Z,175
2016-02-13T07:40:53.665Z,170
2016-02-13T07:41:53.653Z,165
2016-02-13T07:42:53.626Z,160
2016-02-13T07:43:53.612Z,155
2016-02-13T07:44:53.458Z,150
2016-02-13T07:45:53.821Z,150
2016-02-13T07:46:53.605Z,145
2016-02-13T07:47:53.639Z,140
2016-02-13T07:48:53.579Z,135
2016-02-13T07:49:54.113Z,130
2016-02-13T07:50:53.616Z,125
2016-02-13T07:51:53.589Z,125
2016-02-13T07:52:53.576Z,125
2016-02-13T07:53:53.594Z,125
2016-02-13T07:54:53.566Z,125
2016-02-13T07:55:53.600Z,125
2016-02-13T07:56:53.399Z,125
2016-02-13T07:57:53.559Z,125
2016-02-13T07:58:53.529Z,125
2016-02-13T07:59:53.533Z,125
2016-02-13T08:00:53.521Z,120
2016-02-13T08:01:53.541Z,115
2016-02-13T08:02:53.546Z,115
2016-02-13T08:03:53.501Z,115
2016-02-13T08:04:53.530Z,110
2016-02-13T08:05:53.502Z,110
2016-02-13T08:06:53.474Z,115
2016-02-13T08:07:53.492Z,120
2016-02-13T08:08:53.465Z,110
2016-02-13T08:09:53.467Z,115
2016-02-13T08:10:53.438Z,115
2016-02-13T08:11:53.472Z,115
2016-02-13T08:12:53.459Z,120
2016-02-13T08:13:53.431Z,120
2016-02-13T08:14:53.434Z,120
2016-02-13T08:15:53.436Z,125
2016-02-13T08:16:53.407Z,125
2016-02-13T08:17:53.411Z,125
2016-02-13T08:18:53.414Z,130
2016-02-13T08:19:53.402Z,135
2016-02-13T08:20:53.406Z,130
2016-02-13T08:21:53.392Z,130
2016-02-13T08:22:53.379Z,125
2016-02-13T08:23:53.381Z,125
2016-02-13T08:24:53.369Z,120
2016-02-13T08:25:53.372Z,120
2016-02-13T08:26:53.377Z,125
2016-02-13T08:27:53.661Z,120
2016-02-13T08:28:54.304Z,120
2016-02-13T08:29:53.605Z,120
2016-02-13T08:30:53.517Z,115
2016-02-13T08:31:53.331Z,115
2016-02-13T08:32:53.319Z,115
2016-02-13T08:33:53.306Z,115
2016-02-13T08:34:53.294Z,110
2016-02-13T08:35:53.297Z,110
2016-02-13T08:36:54.368Z,110
2016-02-13T08:37:53.324Z,110
2016-02-13T08:38:53.310Z,110
2016-02-13T08:39:53.297Z,115
2016-02-13T08:40:53.268Z,115
2016-02-13T08:41:53.099Z,115
2016-02-13T08:42:53.259Z,115
2016-02-13T08:43:53.248Z,115
2016-02-13T08:44:53.234Z,115
2016-02-13T08:45:53.237Z,115
2016-02-13T08:46:53.241Z,115
2016-02-13T08:47:53.243Z,115
2016-02-13T08:48:53.215Z,115
2016-02-13T08:49:53.202Z,115
2016-02-13T08:50:53.189Z,110
2016-02-13T08:51:53.207Z,110
2016-02-13T08:52:53.194Z,110
2016-02-13T08:53:53.197Z,110
2016-02-13T08:54:53.184Z,115
2016-02-13T08:55:53.220Z,125
2016-02-13T08:56:53.160Z,135
2016-02-13T08:57:53.163Z,140
2016-02-13T08:58:53.165Z,145
2016-02-13T08:59:53.169Z,165
2016-02-13T09:00:53.171Z,185
2016-02-13T09:01:53.143Z,155
2016-02-13T09:02:53.132Z,140
2016-02-13T09:03:53.122Z,130
2016-02-13T09:04:53.109Z,130
2016-02-13T09:05:53.112Z,120
2016-02-13T09:06:53.098Z,115
2016-02-13T09:07:53.101Z,115
2016-02-13T09:08:53.087Z,120
2016-02-13T09:09:53.090Z,120
2016-02-13T09:10:53.093Z,120
2016-02-13T09:11:53.096Z,120
2016-02-13T09:12:53.099Z,125
2016-02-13T09:13:53.071Z,135
2016-02-13T09:14:53.089Z,135
2016-02-13T09:15:53.062Z,135
2016-02-13T09:16:53.048Z,140
2016-02-13T09:17:53.035Z,140
2016-02-13T09:18:53.022Z,140
2016-02-13T09:19:53.025Z,140
2016-02-13T09:20:53.043Z,135
2016-02-13T09:21:53.031Z,140
2016-02-13T09:22:53.034Z,145
2016-02-13T09:23:53.004Z,145
2016-02-13T09:24:53.023Z,145
2016-02-13T09:25:52.994Z,145
2016-02-13T09:26:52.997Z,140
2016-02-13T09:27:53.000Z,140
2016-02-13T09:28:52.831Z,140
2016-02-13T09:30:07.071Z,145
2016-02-13T09:30:52.962Z,150
2016-02-13T09:31:53.183Z,155
2016-02-13T09:32:52.985Z,145
2016-02-13T09:33:52.943Z,140
2016-02-13T09:34:52.946Z,140
2016-02-13T09:35:52.932Z,150
2016-02-13T09:36:52.951Z,160
2016-02-13T09:37:52.938Z,195
2016-02-13T09:38:52.987Z,195
2016-02-13T09:39:52.912Z,200
2016-02-13T09:40:52.915Z,200
2016-02-13T09:41:52.901Z,200
2016-02-13T09:42:52.904Z,200
2016-02-13T09:43:52.891Z,200
2016-02-13T09:44:52.893Z,215
2016-02-13T09:45:52.913Z,230
2016-02-13T09:46:52.868Z,230
2016-02-13T09:47:52.857Z,220
2016-02-13T09:48:52.875Z,220
2016-02-13T09:49:52.862Z,220
2016-02-13T09:50:52.865Z,235
2016-02-13T09:51:52.853Z,250
2016-02-13T09:52:52.872Z,250
2016-02-13T09:53:52.828Z,220
2016-02-13T09:54:52.846Z,235
2016-02-13T09:55:52.973Z,255
2016-02-13T09:56:52.679Z,240
2016-02-13T09:57:52.822Z,250
2016-02-13T09:58:52.825Z,250
2016-02-13T09:59:52.828Z,245
2016-02-13T10:00:52.816Z,235
2016-02-13T10:01:52.809Z,220
2016-02-13T10:02:52.780Z,210
2016-02-13T10:03:52.815Z,215
2016-02-13T10:04:52.785Z,240
2016-02-13T10:05:52.788Z,270
2016-02-13T10:06:52.790Z,270
2016-02-13T10:07:52.794Z,220
2016-02-13T10:08:52.766Z,190
2016-02-13T10:09:52.800Z,180
2016-02-13T10:10:52.756Z,180
2016-02-13T10:11:52.790Z,170
2016-02-13T10:12:52.746Z,155
2016-02-13T10:13:52.748Z,150
2016-02-13T10:14:52.798Z,150
2016-02-13T10:15:52.738Z,145
2016-02-13T10:16:52.758Z,140
2016-02-13T10:17:52.760Z,170
2016-02-13T10:18:52.716Z,230
2016-02-13T10:19:52.719Z,225
2016-02-13T10:20:52.738Z,185
2016-02-13T10:21:52.708Z,190
2016-02-13T10:22:52.710Z,215
2016-02-13T10:23:52.698Z,270
2016-02-13T10:24:52.732Z,265
2016-02-13T10:25:52.705Z,255
2016-02-13T10:26:52.707Z,245
2016-02-13T10:27:52.695Z,280
2016-02-13T10:28:52.697Z,335
2016-02-13T10:29:52.700Z,265
2016-02-13T10:30:52.718Z,250
2016-02-13T10:31:52.721Z,270
2016-02-13T10:32:52.694Z,325
2016-02-13T10:33:52.665Z,260
2016-02-13T10:34:52.684Z,180
2016-02-13T10:35:52.655Z,200
2016-02-13T10:36:52.643Z,235
2016-02-13T10:37:52.676Z,195
2016-02-13T10:38:52.663Z,160
2016-02-13T10:39:52.650Z,155
2016-02-13T10:40:52.637Z,150
2016-02-13T10:41:52.640Z,150
2016-02-13T10:42:52.673Z,150
2016-02-13T10:43:52.633Z,150
2016-02-13T10:44:52.603Z,150
2016-02-13T10:45:52.623Z,155
2016-02-13T10:46:52.625Z,155
2016-02-13T10:47:52.612Z,145
2016-02-13T10:48:52.630Z,140
2016-02-13T10:49:52.617Z,140
2016-02-13T10:50:52.621Z,155
2016-02-13T10:51:52.624Z,155
2016-02-13T10:52:52.596Z,190
2016-02-13T10:53:52.614Z,245
2016-02-13T10:54:52.602Z,285
2016-02-13T10:55:52.776Z,220
2016-02-13T10:56:52.638Z,165
2016-02-13T10:57:52.610Z,165
2016-02-13T10:58:52.597Z,170
2016-02-13T10:59:52.600Z,185
2016-02-13T11:00:52.602Z,185
2016-02-13T11:01:52.702Z,175
2016-02-13T11:02:52.580Z,170
2016-02-13T11:03:52.631Z,160
2016-02-13T11:04:52.602Z,170
2016-02-13T11:05:52.590Z,200
2016-02-13T11:06:52.592Z,220
2016-02-13T11:07:52.610Z,210
2016-02-13T11:08:52.582Z,210
2016-02-13T11:09:52.600Z,225
2016-02-13T11:10:52.431Z,240
2016-02-13T11:11:52.558Z,270
2016-02-13T11:12:52.547Z,295
2016-02-13T11:13:52.721Z,255
2016-02-13T11:14:52.756Z,215
2016-02-13T11:15:52.618Z,190
2016-02-13T11:16:52.543Z,180
2016-02-13T11:17:52.560Z,180
2016-02-13T11:18:52.547Z,185
2016-02-13T11:19:52.519Z,205
2016-02-13T11:20:52.570Z,250
2016-02-13T11:21:52.558Z,265
2016-02-13T11:22:52.560Z,250
2016-02-13T11:23:52.547Z,255
2016-02-13T11:24:52.566Z,270
2016-02-13T11:25:52.552Z,280
2016-02-13T11:26:52.540Z,295
2016-02-13T11:27:52.511Z,305
2016-02-13T11:28:52.560Z,305
2016-02-13T11:29:52.486Z,310
2016-02-13T11:30:52.551Z,265
2016-02-13T11:31:52.507Z,230
2016-02-13T11:32:52.494Z,225
2016-02-13T11:33:52.530Z,240
2016-02-13T11:34:52.501Z,275
2016-02-13T11:35:52.520Z,310
2016-02-13T11:36:52.491Z,345
2016-02-13T11:37:52.446Z,355
2016-02-13T11:38:52.450Z,355
2016-02-13T11:39:52.453Z,330
2016-02-13T11:40:52.471Z,295
2016-02-13T11:41:52.474Z,305
2016-02-13T11:42:52.446Z,320
2016-02-13T11:43:52.464Z,320
2016-02-13T11:44:52.452Z,310
2016-02-13T11:45:52.470Z,315
2016-02-13T11:46:52.426Z,305
2016-02-13T11:47:52.430Z,280
2016-02-13T11:48:52.417Z,270
2016-02-13T11:49:52.436Z,280
2016-02-13T11:50:52.422Z,260
2016-02-13T11:51:52.409Z,240
2016-02-13T11:52:52.397Z,210
2016-02-13T11:53:52.727Z,190
2016-02-13T11:54:52.433Z,190
2016-02-13T11:55:52.453Z,200
2016-02-13T11:56:52.424Z,200
2016-02-13T11:57:52.396Z,195
2016-02-13T11:58:52.399Z,185
2016-02-13T11:59:52.449Z,165
2016-02-13T12:00:52.483Z,145
2016-02-13T12:01:52.424Z,150
2016-02-13T12:02:52.426Z,185
2016-02-13T12:03:52.446Z,235
2016-02-13T12:04:52.465Z,265
2016-02-13T12:05:52.440Z,255
2016-02-13T12:06:52.475Z,240
2016-02-13T12:07:52.446Z,240
2016-02-13T12:08:52.464Z,240
2016-02-13T12:09:52.451Z,255
2016-02-13T12:10:52.423Z,295
2016-02-13T12:11:52.394Z,300
2016-02-13T12:12:52.272Z,285
2016-02-13T12:13:52.401Z,270
2016-02-13T12:14:52.465Z,260
2016-02-13T12:15:52.422Z,245
2016-02-13T12:16:52.442Z,230
2016-02-13T12:17:51.725Z,210
2016-02-13T12:18:52.416Z,185
2016-02-13T12:19:52.419Z,170
2016-02-13T12:20:52.421Z,165
2016-02-13T12:21:55.486Z,175
2016-02-13T12:22:52.412Z,185
2016-02-13T12:23:52.477Z,180
2016-02-13T12:24:52.402Z,165
2016-02-13T12:25:52.433Z,155
2016-02-13T12:26:52.404Z,150
2016-02-13T12:27:52.407Z,145
2016-02-13T12:28:51.694Z,150
2016-02-13T12:29:51.806Z,160
2016-02-13T12:30:52.433Z,165
2016-02-13T12:31:52.422Z,170
2016-02-13T12:32:52.472Z,175
2016-02-13T12:33:52.382Z,190
2016-02-13T12:34:52.384Z,205
2016-02-13T12:35:52.387Z,240
2016-02-13T12:36:52.421Z,260
2016-02-13T12:37:52.393Z,260
2016-02-13T12:38:52.395Z,255
2016-02-13T12:39:52.382Z,250
2016-02-13T12:40:52.478Z,240
2016-02-13T12:41:52.403Z,245
2016-02-13T12:42:52.470Z,260
2016-02-13T12:43:52.425Z,265
2016-02-13T12:44:52.414Z,265
2016-02-13T12:45:52.463Z,260
2016-02-13T12:46:52.387Z,260
2016-02-13T12:47:52.452Z,245
2016-02-13T12:48:52.424Z,235
2016-02-13T12:49:52.397Z,220
2016-02-13T12:50:52.369Z,215
2016-02-13T12:51:52.327Z,225
2016-02-13T12:52:52.377Z,235
2016-02-13T12:53:52.311Z,230
2016-02-13T12:54:52.340Z,230
2016-02-13T12:55:52.494Z,235
2016-02-13T12:56:52.381Z,230
2016-02-13T12:57:52.301Z,220
2016-02-13T12:58:51.661Z,215
2016-02-13T12:59:52.286Z,205
2016-02-13T13:00:52.335Z,200
2016-02-13T13:01:52.164Z,190
2016-02-13T13:02:52.305Z,180
2016-02-13T13:03:52.306Z,175
2016-02-13T13:04:52.275Z,175
2016-02-13T13:05:52.232Z,180
2016-02-13T13:06:52.461Z,185
2016-02-13T13:07:52.261Z,185
2016-02-13T13:08:52.279Z,190
2016-02-13T13:09:52.281Z,195
2016-02-13T13:10:52.283Z,205
2016-02-13T13:11:52.316Z,210
2016-02-13T13:12:52.272Z,210
2016-02-13T13:13:52.274Z,210
2016-02-13T13:14:52.261Z,215
2016-02-13T13:15:52.311Z,225
2016-02-13T13:16:52.266Z,230
2016-02-13T13:17:52.332Z,230
2016-02-13T13:18:52.272Z,230
2016-02-13T13:19:52.260Z,225
2016-02-13T13:20:52.230Z,215
2016-02-13T13:21:52.327Z,210
2016-02-13T13:22:52.283Z,200
2016-02-13T13:23:52.285Z,195
2016-02-13T13:24:52.273Z,190
2016-02-13T13:25:52.276Z,205
2016-02-13T13:26:52.279Z,210
2016-02-13T13:27:52.282Z,205
2016-02-13T13:28:52.237Z,200
2016-02-13T13:29:52.290Z,195
2016-02-13T13:30:52.277Z,215
2016-02-13T13:31:52.311Z,225
2016-02-13T13:32:52.266Z,230
2016-02-13T13:33:52.288Z,235
2016-02-13T13:34:52.291Z,250
2016-02-13T13:35:52.325Z,255
2016-02-13T13:36:52.265Z,250
2016-02-13T13:37:52.236Z,260
2016-02-13T13:38:52.226Z,255
2016-02-13T13:39:52.259Z,255
2016-02-13T13:40:52.261Z,250
2016-02-13T13:41:52.268Z,235
2016-02-13T13:42:52.270Z,230
2016-02-13T13:43:52.460Z,225
2016-02-13T13:44:52.276Z,215
2016-02-13T13:45:52.278Z,205
2016-02-13T13:46:52.281Z,200
2016-02-13T13:47:52.268Z,195
2016-02-13T13:48:52.270Z,195
2016-02-13T13:49:52.258Z,210
2016-02-13T13:50:52.245Z,205
2016-02-13T13:51:52.247Z,205
2016-02-13T13:52:52.281Z,200
2016-02-13T13:53:52.284Z,195
2016-02-13T13:54:52.255Z,195
2016-02-13T13:55:52.322Z,205
2016-02-13T13:56:52.230Z,200
2016-02-13T13:57:52.294Z,200
2016-02-13T13:58:52.220Z,205
2016-02-13T13:59:52.332Z,205
2016-02-13T14:00:52.224Z,205
2016-02-13T14:01:52.244Z,200
2016-02-13T14:02:52.246Z,200
2016-02-13T14:03:51.546Z,205
2016-02-13T14:04:52.251Z,200
2016-02-13T14:05:52.285Z,200
2016-02-13T14:06:52.272Z,195
2016-02-13T14:07:52.259Z,195
2016-02-13T14:08:52.246Z,190
2016-02-13T14:09:52.249Z,190
2016-02-13T14:10:52.268Z,180
2016-02-13T14:11:52.270Z,185
2016-02-13T14:12:52.242Z,185
2016-02-13T14:13:52.245Z,185
2016-02-13T14:14:52.262Z,185